РУС

ENG

 
  Pireps - S7
 

Рейс SBI5342

  • Выполнял: Dmitry Schcurov
  • Аэропорт отправления: Surgut (USRR)
  • Аэропорт назначения: Tolmachevo Novosibirsk (UNNT)
  • Тип ВС: E170 (VQ-BYK)
  • Время полёта: 03.41
  • Дата полёта: 24.04.2020
  • Маршрут: KARPO R229 XV B228 KEGAV
  • Статус: Одобрен

Детали полёта
Gross Revenue:
(69 load / $ 180.00 per unit
$ 12, 420.00
Fuel Cost:
(2292 fuel used @ 5.1 / unit)
$ 11, 689.20


Дополнительная информация о полёте:

Лог

Aircraft Used in flight is Embraer 170 Air Canada
11:36 Navigation Lights ON at 210 AGL
11:45 Beacon Lights ON at 210 AGL
11:45 Brakes are Released
11:45 Pushing back
11:46 Engine 1 Started
11:46 Engine 2 Started
11:46 Brakes are On
11:46Flaps 1 Selected at 210ft and 0kts
11:46Flaps 2 Selected at 210ft and 0kts
11:46 Taxi Lights ON at 210 AGL
11:47 Brakes are Released
11:49 Landing Lights ON at 210 AGL
11:49 Taxi Lights OFF at 210 AGL
11:49 Strobe Lights ON at 210 AGL
11:50 You Took off @ 151 Knots and Flaps at Position 2
Departure Weather
USRR 240830Z 20005MPS 160V230 9999 SCT028CB 04/M02 Q1003 R25/CLRD60 NOSIG RMK QFE747
11:50 Landing Gear Up @ 163 Knots and 360 Feet
11:51 You exceeded maximum bank angle
11:51Flaps 1 Selected at 4390ft and 181kts
11:52Flaps Retracted at 6930ft and 210kts
11:53 Landing Lights OFF at 7540 AGL
13:01 Landing Lights ON at 8420 AGL
13:03Flaps 1 Selected at 6590ft and 239kts
13:03Flaps Retracted at 6550ft and 239kts
13:04Flaps 1 Selected at 4370ft and 200kts
13:06Flaps 2 Selected at 3830ft and 183kts
13:06Flaps 3 Selected at 2930ft and 165kts
13:08Flaps 4 Selected at 2750ft and 148kts
13:08 Landing Gear Down @ 148 Knots and 2750 Feet
13:08Flaps 6 Selected at 2970ft and 147kts
13:10 You Landed @ 126 Knots and with -400 Vertical Speed
Arrival Weather
UNNT 240800Z 11003MPS CAVOK 19/M01 Q1010 R07/090070 R16/090070 NOSIG RMK QFE747/0997
13:11 Taxiing to gate
13:11 Landing Lights OFF at 380 AGL
13:11 Taxi Lights ON at 380 AGL
13:11 Strobe Lights OFF at 380 AGL
13:11Flaps Retracted at 380ft and 13kts
13:17 Brakes are On
13:18 Taxi Lights OFF at 380 AGL
13:18 Engine 1 Stoped
13:18 Engine 2 Stoped
13:18 Beacon Lights OFF at 380 AGL
Pirep logged with S7 Tracking 1.0.0.14



Общая оценка полета : 100%




Route Map



 
 
   
 
Новости

03.09.2020 - Полеты в MFS 2020

Спешим сообщить вам, что теперь наш S7 Pad поддерживается для полетов в новом симуляторе MFS 2020. В разделе Загрузки вы найдете FSUIPC7.rar
Инструкция для запуска прилагается!

   
 
Авторизация






Регистрация

Восстановить пароль?

Мы в соц. сетях

      



   
 





   
 


   
 


Яндекс.Метрика

www.va-s7.ru 2011-2020
Все права защищены.



Минуточку внимания!
Сайт va-s7.ru не является коммерческим проектом. Мы не имеем отношения к торговым маркам "S7" и "Globus" и их представителям.
Эмблемы на сайте являются собственностью соответствующих компаний.

аэронавигационная метеорологическая и любая другая информация с данного ресурса ни в коем случае не должна использоваться для реальных полетов